Komako Airport


Codes: AYOK/HOC
Name: Komako Airport
City: Komako
Country: Papua New Guinea
Elevation: 3960 ft.

Photos at Komako Airport


   Photos courtesy of SpottingLog. You can add your own sightings and photos by signing up for a free trial today.



No photos found.

Weather at Komako Airport


Time (UTC)DescriptionTempratureWindCloud coverageVisibilityPressureHumidity
25-Jun-2024 12:00Light Rain17°C4 mph, NE97%10000m1014hPa95%
25-Jun-2024 15:00Overcast Clouds17°C4 mph, NE97%10000m1014hPa94%
25-Jun-2024 18:00Overcast Clouds16°C4 mph, NE88%10000m1013hPa93%
25-Jun-2024 21:00Broken Clouds16°C4 mph, NE65%10000m1015hPa91%
26-Jun-2024 00:00Broken Clouds23°C0 mph, SE75%10000m1014hPa62%
26-Jun-2024 03:00Light Rain24°C2 mph, SW80%10000m1011hPa64%
26-Jun-2024 06:00Moderate Rain22°C2 mph, E86%10000m1010hPa78%
26-Jun-2024 09:00Light Rain18°C4 mph, NE96%10000m1013hPa96%
26-Jun-2024 12:00Broken Clouds17°C4 mph, NE73%10000m1014hPa95%
26-Jun-2024 15:00Broken Clouds16°C4 mph, NE82%10000m1013hPa93%
26-Jun-2024 18:00Overcast Clouds16°C4 mph, NE91%10000m1013hPa92%
26-Jun-2024 21:00Overcast Clouds16°C4 mph, NE97%10000m1014hPa91%
27-Jun-2024 00:00Overcast Clouds23°C0 mph, E97%10000m1013hPa63%
27-Jun-2024 03:00Light Rain25°C2 mph, S96%10000m1010hPa60%
27-Jun-2024 06:00Moderate Rain21°C2 mph, SE98%10000m1010hPa83%
27-Jun-2024 09:00Light Rain18°C2 mph, NE98%10000m1012hPa97%
27-Jun-2024 12:00Light Rain17°C4 mph, NE99%10000m1014hPa95%
27-Jun-2024 15:00Broken Clouds17°C4 mph, NE72%10000m1013hPa92%
27-Jun-2024 18:00Overcast Clouds17°C4 mph, NE86%10000m1012hPa91%
27-Jun-2024 21:00Broken Clouds17°C4 mph, NE61%10000m1014hPa91%
28-Jun-2024 00:00Light Rain18°C2 mph, N79%10000m1014hPa91%
28-Jun-2024 03:00Overcast Clouds23°C2 mph, SE100%10000m1012hPa67%
28-Jun-2024 06:00Light Rain20°C0 mph, SE100%10000m1011hPa81%
28-Jun-2024 09:00Light Rain17°C2 mph, NE63%9911m1013hPa97%
28-Jun-2024 12:00Broken Clouds17°C4 mph, NE80%10000m1015hPa94%
28-Jun-2024 15:00Overcast Clouds16°C4 mph, NE98%10000m1013hPa93%
28-Jun-2024 18:00Light Rain16°C4 mph, NE99%10000m1013hPa95%
28-Jun-2024 21:00Light Rain16°C4 mph, NE84%10000m1014hPa94%
29-Jun-2024 00:00Light Rain22°C0 mph, E83%10000m1013hPa73%
29-Jun-2024 03:00Light Rain23°C2 mph, E93%10000m1011hPa72%
29-Jun-2024 06:00Moderate Rain21°C2 mph, SE89%10000m1010hPa81%
29-Jun-2024 09:00Light Rain17°C2 mph, NE94%7917m1013hPa97%
29-Jun-2024 12:00Overcast Clouds17°C4 mph, NE97%10000m1014hPa94%
29-Jun-2024 15:00Overcast Clouds17°C4 mph, NE100%10000m1013hPa93%
29-Jun-2024 18:00Overcast Clouds17°C4 mph, NE100%10000m1012hPa93%
29-Jun-2024 21:00Broken Clouds16°C4 mph, NE65%10000m1013hPa92%
30-Jun-2024 00:00Broken Clouds22°C2 mph, NE80%10000m1013hPa63%
30-Jun-2024 03:00Overcast Clouds23°C0 mph, SE100%10000m1010hPa58%
30-Jun-2024 06:00Light Rain21°C2 mph, SE100%10000m1009hPa74%
30-Jun-2024 09:00Light Rain17°C4 mph, NE100%10000m1012hPa93%